createdAt,value
2022-12-31T00:04:33.336Z,23.73
2022-12-31T00:14:39.255Z,12.80
2022-12-31T00:24:42.299Z,16.05
2022-12-31T00:34:46.877Z,17.77
2022-12-31T00:44:49.866Z,17.65
2022-12-31T00:54:54.908Z,14.07
2022-12-31T01:04:58.305Z,12.90
2022-12-31T01:15:03.266Z,12.55
2022-12-31T01:25:08.697Z,11.35
2022-12-31T01:35:13.679Z,9.95
2022-12-31T01:45:17.642Z,8.40
2022-12-31T01:55:25.594Z,12.82
2022-12-31T02:05:33.704Z,10.48
2022-12-31T02:15:48.907Z,11.68
2022-12-31T02:26:17.773Z,7.15
2022-12-31T02:36:26.638Z,9.25
2022-12-31T02:46:37.238Z,13.80
2022-12-31T02:56:52.244Z,8.35
2022-12-31T03:06:56.418Z,13.52
2022-12-31T03:17:00.865Z,9.43
2022-12-31T03:27:04.163Z,6.15
2022-12-31T03:37:09.153Z,7.63
2022-12-31T03:47:13.625Z,11.05
2022-12-31T03:57:19.094Z,12.57
2022-12-31T04:07:22.585Z,5.35
2022-12-31T04:17:27.812Z,12.27
2022-12-31T04:27:31.422Z,13.80
2022-12-31T04:37:36.434Z,11.57
2022-12-31T04:47:39.361Z,16.83
2022-12-31T04:57:43.946Z,6.80
2022-12-31T05:07:47.945Z,3.97
2022-12-31T05:17:52.579Z,7.53
2022-12-31T05:27:55.487Z,2.97
2022-12-31T05:38:00.932Z,6.97
2022-12-31T05:48:04.252Z,5.90
2022-12-31T05:58:08.642Z,8.45
2022-12-31T06:08:12.612Z,5.38
2022-12-31T06:18:17.041Z,6.88
2022-12-31T06:28:20.671Z,6.05
2022-12-31T06:38:25.707Z,10.13
2022-12-31T06:48:28.674Z,8.60
2022-12-31T06:58:34.223Z,26.55
2022-12-31T07:08:52.324Z,14.80
2022-12-31T07:19:14.069Z,16.77
2022-12-31T07:29:23.032Z,14.80
2022-12-31T07:39:39.740Z,10.15
2022-12-31T07:49:44.693Z,20.58
2022-12-31T08:00:01.976Z,9.55
2022-12-31T08:10:17.310Z,8.85
2022-12-31T08:20:22.339Z,12.13
2022-12-31T08:30:30.400Z,6.78
2022-12-31T08:40:45.136Z,8.48
2022-12-31T08:50:49.337Z,7.60
2022-12-31T09:00:59.859Z,9.07
2022-12-31T09:11:11.427Z,15.32
2022-12-31T09:21:18.143Z,8.50
2022-12-31T09:31:32.391Z,14.93
2022-12-31T09:42:14.998Z,15.23
2022-12-31T09:52:26.376Z,15.82
2022-12-31T10:02:54.301Z,16.73
2022-12-31T10:13:43.581Z,14.50
2022-12-31T10:24:05.285Z,16.27
2022-12-31T10:34:16.486Z,20.55
2022-12-31T10:44:54.132Z,31.83
2022-12-31T10:55:27.504Z,31.42
2022-12-31T11:06:15.327Z,20.48
2022-12-31T11:16:38.554Z,11.43
2022-12-31T11:26:56.537Z,21.27
2022-12-31T11:37:20.727Z,14.02
2022-12-31T11:48:20.506Z,17.52
2022-12-31T11:58:16.119Z,10.90
2022-12-31T12:08:19.473Z,14.50
2022-12-31T12:18:29.963Z,11.23
2022-12-31T12:28:44.436Z,11.60
2022-12-31T12:38:49.269Z,15.65
2022-12-31T12:48:56.204Z,14.80
2022-12-31T12:59:38.171Z,10.20
2022-12-31T13:09:54.964Z,16.23
2022-12-31T13:20:05.642Z,15.38
2022-12-31T13:30:20.284Z,14.52
2022-12-31T13:40:31.075Z,13.02
2022-12-31T13:50:39.634Z,12.02
2022-12-31T14:00:48.238Z,14.98
2022-12-31T14:11:05.293Z,31.80
2022-12-31T14:21:16.300Z,17.63
2022-12-31T14:31:34.378Z,17.83
2022-12-31T14:42:01.879Z,13.35
2022-12-31T14:52:09.895Z,19.30
2022-12-31T15:02:27.592Z,28.38
2022-12-31T15:12:50.740Z,26.95
2022-12-31T15:22:55.917Z,23.23
2022-12-31T15:33:02.570Z,17.50
2022-12-31T15:43:13.332Z,20.77
2022-12-31T15:53:27.990Z,22.10
2022-12-31T16:03:33.051Z,19.70
2022-12-31T16:13:39.705Z,17.38
2022-12-31T16:23:50.323Z,15.05
2022-12-31T16:34:04.994Z,13.20
2022-12-31T16:44:25.474Z,21.80
2022-12-31T16:54:31.397Z,21.33
2022-12-31T17:04:41.490Z,16.35
2022-12-31T17:14:51.982Z,21.98
2022-12-31T17:25:04.354Z,17.15
2022-12-31T17:35:28.674Z,30.15
2022-12-31T17:45:40.445Z,22.08
2022-12-31T17:55:47.602Z,14.67
2022-12-31T18:05:54.767Z,25.17
2022-12-31T18:15:57.756Z,19.13
2022-12-31T18:26:03.450Z,28.23
2022-12-31T18:36:17.103Z,25.25
2022-12-31T18:46:25.056Z,19.23
2022-12-31T18:56:43.239Z,19.70
2022-12-31T19:06:53.849Z,16.10
2022-12-31T19:27:14.675Z,18.67
2022-12-31T19:37:17.859Z,22.88
2022-12-31T19:57:59.840Z,15.05
2022-12-31T20:08:04.527Z,11.05
2022-12-31T20:18:08.263Z,22.13
2022-12-31T20:28:12.936Z,21.45
2022-12-31T20:38:15.948Z,23.98
2022-12-31T20:48:36.198Z,29.38
2022-12-31T20:58:39.262Z,27.23
2022-12-31T21:09:00.743Z,24.23
2022-12-31T21:19:05.714Z,30.25
2022-12-31T21:29:11.449Z,43.50
2022-12-31T21:39:15.524Z,40.28
2022-12-31T21:49:20.377Z,32.78
2022-12-31T21:59:46.465Z,27.77
2022-12-31T22:09:51.069Z,45.13
2022-12-31T22:20:25.421Z,43.95
2022-12-31T22:30:18.871Z,37.80
2022-12-31T22:40:21.894Z,43.08
2022-12-31T22:50:26.341Z,28.80
2022-12-31T23:00:39.635Z,30.38
2022-12-31T23:11:05.921Z,52.63
2022-12-31T23:21:28.887Z,57.25
2022-12-31T23:31:33.403Z,47.72
2022-12-31T23:41:36.651Z,45.72
2022-12-31T23:51:41.062Z,44.47
